sensor_id;sensor_type;location;lat;lon;timestamp;P1;durP1;ratioP1;P2;durP2;ratioP2
3831;SDS011;12460;42.662;23.288;2023-03-05T00:05:42;28.57;;;17.27;;
3831;SDS011;12460;42.662;23.288;2023-03-05T00:20:47;24.30;;;15.00;;
3831;SDS011;12460;42.662;23.288;2023-03-05T00:35:52;25.43;;;15.20;;
3831;SDS011;12460;42.662;23.288;2023-03-05T00:50:56;22.00;;;14.37;;
3831;SDS011;12460;42.662;23.288;2023-03-05T01:06:02;21.90;;;14.53;;
3831;SDS011;12460;42.662;23.288;2023-03-05T01:21:08;26.73;;;14.73;;
3831;SDS011;12460;42.662;23.288;2023-03-05T01:36:13;23.47;;;13.67;;
3831;SDS011;12460;42.662;23.288;2023-03-05T01:51:19;23.47;;;12.90;;
3831;SDS011;12460;42.662;23.288;2023-03-05T02:06:28;17.30;;;12.90;;
3831;SDS011;12460;42.662;23.288;2023-03-05T02:21:38;21.03;;;13.43;;
3831;SDS011;12460;42.662;23.288;2023-03-05T02:36:46;22.50;;;13.87;;
3831;SDS011;12460;42.662;23.288;2023-03-05T02:51:53;22.93;;;13.53;;
3831;SDS011;12460;42.662;23.288;2023-03-05T03:06:58;26.13;;;15.30;;
3831;SDS011;12460;42.662;23.288;2023-03-05T03:22:03;24.50;;;13.60;;
3831;SDS011;12460;42.662;23.288;2023-03-05T03:37:07;24.80;;;14.57;;
3831;SDS011;12460;42.662;23.288;2023-03-05T03:52:11;24.80;;;15.47;;
3831;SDS011;12460;42.662;23.288;2023-03-05T04:07:15;25.33;;;15.07;;
3831;SDS011;12460;42.662;23.288;2023-03-05T04:22:19;24.07;;;15.03;;
3831;SDS011;12460;42.662;23.288;2023-03-05T04:37:24;26.87;;;14.40;;
3831;SDS011;12460;42.662;23.288;2023-03-05T04:52:29;24.33;;;14.73;;
3831;SDS011;12460;42.662;23.288;2023-03-05T05:07:33;26.00;;;15.70;;
3831;SDS011;12460;42.662;23.288;2023-03-05T05:22:37;26.10;;;16.10;;
3831;SDS011;12460;42.662;23.288;2023-03-05T05:37:42;28.77;;;15.27;;
3831;SDS011;12460;42.662;23.288;2023-03-05T05:52:47;23.83;;;13.83;;
3831;SDS011;12460;42.662;23.288;2023-03-05T06:07:53;19.97;;;12.50;;
3831;SDS011;12460;42.662;23.288;2023-03-05T06:22:57;18.27;;;11.07;;
3831;SDS011;12460;42.662;23.288;2023-03-05T06:38:02;18.00;;;11.13;;
3831;SDS011;12460;42.662;23.288;2023-03-05T06:53:05;17.57;;;11.23;;
3831;SDS011;12460;42.662;23.288;2023-03-05T07:08:10;19.27;;;12.77;;
3831;SDS011;12460;42.662;23.288;2023-03-05T07:23:15;21.00;;;13.57;;
3831;SDS011;12460;42.662;23.288;2023-03-05T07:38:19;25.43;;;15.50;;
3831;SDS011;12460;42.662;23.288;2023-03-05T07:53:24;21.33;;;15.23;;
3831;SDS011;12460;42.662;23.288;2023-03-05T08:08:29;21.93;;;15.80;;
3831;SDS011;12460;42.662;23.288;2023-03-05T08:23:33;24.97;;;16.73;;
3831;SDS011;12460;42.662;23.288;2023-03-05T08:38:38;22.90;;;16.57;;
3831;SDS011;12460;42.662;23.288;2023-03-05T08:53:42;24.17;;;15.50;;
3831;SDS011;12460;42.662;23.288;2023-03-05T09:08:48;26.40;;;16.60;;
3831;SDS011;12460;42.662;23.288;2023-03-05T09:23:52;18.47;;;14.27;;
3831;SDS011;12460;42.662;23.288;2023-03-05T09:39:02;20.23;;;14.03;;
3831;SDS011;12460;42.662;23.288;2023-03-05T09:54:13;23.30;;;16.00;;
3831;SDS011;12460;42.662;23.288;2023-03-05T10:25:00;19.27;;;13.97;;
3831;SDS011;12460;42.662;23.288;2023-03-05T10:40:23;16.53;;;13.40;;
3831;SDS011;12460;42.662;23.288;2023-03-05T10:55:38;19.40;;;12.87;;
3831;SDS011;12460;42.662;23.288;2023-03-05T11:10:43;14.90;;;11.77;;
3831;SDS011;12460;42.662;23.288;2023-03-05T11:40:57;17.77;;;12.80;;
3831;SDS011;12460;42.662;23.288;2023-03-05T11:56:04;15.93;;;12.00;;
3831;SDS011;12460;42.662;23.288;2023-03-05T12:11:33;13.87;;;10.20;;
3831;SDS011;12460;42.662;23.288;2023-03-05T12:42:33;14.67;;;11.60;;
3831;SDS011;12460;42.662;23.288;2023-03-05T12:57:32;15.00;;;11.27;;
3831;SDS011;12460;42.662;23.288;2023-03-05T13:12:37;14.93;;;10.63;;
3831;SDS011;12460;42.662;23.288;2023-03-05T13:27:41;13.90;;;11.03;;
3831;SDS011;12460;42.662;23.288;2023-03-05T13:42:46;15.60;;;11.17;;
3831;SDS011;12460;42.662;23.288;2023-03-05T13:57:52;21.53;;;12.30;;
3831;SDS011;12460;42.662;23.288;2023-03-05T14:12:57;17.77;;;13.10;;
3831;SDS011;12460;42.662;23.288;2023-03-05T14:28:04;21.17;;;13.50;;
3831;SDS011;12460;42.662;23.288;2023-03-05T14:43:22;18.73;;;12.40;;
3831;SDS011;12460;42.662;23.288;2023-03-05T14:58:28;20.73;;;13.10;;
3831;SDS011;12460;42.662;23.288;2023-03-05T15:13:38;16.90;;;12.73;;
3831;SDS011;12460;42.662;23.288;2023-03-05T15:28:42;21.60;;;14.17;;
3831;SDS011;12460;42.662;23.288;2023-03-05T15:43:47;19.07;;;12.93;;
3831;SDS011;12460;42.662;23.288;2023-03-05T15:58:51;15.47;;;12.37;;
3831;SDS011;12460;42.662;23.288;2023-03-05T16:13:56;19.53;;;12.80;;
3831;SDS011;12460;42.662;23.288;2023-03-05T16:29:03;19.80;;;13.70;;
3831;SDS011;12460;42.662;23.288;2023-03-05T16:44:07;22.40;;;13.27;;
3831;SDS011;12460;42.662;23.288;2023-03-05T16:59:14;18.47;;;12.63;;
3831;SDS011;12460;42.662;23.288;2023-03-05T17:14:19;16.47;;;11.40;;
3831;SDS011;12460;42.662;23.288;2023-03-05T17:29:24;18.80;;;12.70;;
3831;SDS011;12460;42.662;23.288;2023-03-05T17:44:29;17.80;;;13.17;;
3831;SDS011;12460;42.662;23.288;2023-03-05T17:59:33;14.77;;;11.63;;
3831;SDS011;12460;42.662;23.288;2023-03-05T18:14:39;15.10;;;10.90;;
3831;SDS011;12460;42.662;23.288;2023-03-05T18:29:43;14.23;;;11.07;;
3831;SDS011;12460;42.662;23.288;2023-03-05T18:44:48;14.47;;;11.43;;
3831;SDS011;12460;42.662;23.288;2023-03-05T18:59:52;15.60;;;11.90;;
3831;SDS011;12460;42.662;23.288;2023-03-05T19:14:57;14.60;;;10.30;;
3831;SDS011;12460;42.662;23.288;2023-03-05T19:30:03;16.03;;;11.10;;
3831;SDS011;12460;42.662;23.288;2023-03-05T19:45:08;15.60;;;11.10;;
3831;SDS011;12460;42.662;23.288;2023-03-05T20:00:13;14.37;;;10.47;;
3831;SDS011;12460;42.662;23.288;2023-03-05T20:15:19;15.40;;;11.20;;
3831;SDS011;12460;42.662;23.288;2023-03-05T20:30:31;11.27;;;9.87;;
3831;SDS011;12460;42.662;23.288;2023-03-05T20:45:35;13.20;;;9.87;;
3831;SDS011;12460;42.662;23.288;2023-03-05T21:00:40;14.13;;;10.10;;
3831;SDS011;12460;42.662;23.288;2023-03-05T21:15:45;15.60;;;10.00;;
3831;SDS011;12460;42.662;23.288;2023-03-05T21:30:50;14.90;;;10.50;;
3831;SDS011;12460;42.662;23.288;2023-03-05T21:45:56;11.80;;;9.47;;
3831;SDS011;12460;42.662;23.288;2023-03-05T22:01:04;14.50;;;10.50;;
3831;SDS011;12460;42.662;23.288;2023-03-05T22:16:09;15.17;;;10.97;;
3831;SDS011;12460;42.662;23.288;2023-03-05T22:31:20;14.90;;;9.93;;
3831;SDS011;12460;42.662;23.288;2023-03-05T22:46:24;15.17;;;9.70;;
3831;SDS011;12460;42.662;23.288;2023-03-05T23:01:31;16.30;;;11.00;;
3831;SDS011;12460;42.662;23.288;2023-03-05T23:16:35;14.27;;;9.50;;
3831;SDS011;12460;42.662;23.288;2023-03-05T23:31:40;17.40;;;9.93;;
3831;SDS011;12460;42.662;23.288;2023-03-05T23:46:44;15.73;;;10.90;;
